This is the latest recevied weather packets stored in our database for station/object W0AKY-13. If no packets are shown the sender has not sent any weather packets the latest 1 day(s).
| Time | Temp. | Humidity | Pressure | Rain* | Wind** | Luminosity | Snow |
|---|---|---|---|---|---|---|---|
| 1778085355 | 12.78° C | 34% | 1020.6 hPa | 0 mm | - | 653 W/m² | - |
| 1778084748 | 12.22° C | 36% | 1020.7 hPa | 0 mm | - | 567 W/m² | - |
| 1778083537 | 12.22° C | 45% | 1020.6 hPa | 0 mm | - | 344 W/m² | - |
| 1778083234 | 11.67° C | 39% | 1020.8 hPa | 0 mm | - | 379 W/m² | - |
| 1778081521 | 11.11° C | 41% | 1020.5 hPa | 0 mm | - | 391 W/m² | - |
| 1778080915 | 11.11° C | 44% | 1020.6 hPa | 0 mm | - | 262 W/m² | - |
| 1778080614 | 11.11° C | 43% | 1020.7 hPa | 0 mm | - | 364 W/m² | - |
| 1778080310 | 11.11° C | 43% | 1020.5 hPa | 0 mm | - | 321 W/m² | - |
| 1778080007 | 11.11° C | 39% | 1020.6 hPa | 0 mm | - | 271 W/m² | - |
| 1778079704 | 10.56° C | 44% | 1020.5 hPa | 0 mm | - | 309 W/m² | - |
| 1778079401 | 10.56° C | 43% | 1020.8 hPa | 0 mm | - | 278 W/m² | - |
| 1778076679 | 8.89° C | 53% | 1020.6 hPa | 0 mm | - | 78 W/m² | - |
| 1778076376 | 8.89° C | 50% | 1020.5 hPa | 0 mm | - | 77 W/m² | - |
| 1778075163 | 8.33° C | 52% | 1020.5 hPa | 0 mm | - | 61 W/m² | - |
| 1778074253 | 8.33° C | 58% | 1020.1 hPa | 0 mm | - | 49 W/m² | - |
| 1778073344 | 7.22° C | 59% | 1020 hPa | 0 mm | - | 50 W/m² | - |
| 1778073041 | 7.22° C | 59% | 1020.1 hPa | 0 mm | - | 52 W/m² | - |
| 1778072738 | 7.22° C | 61% | 1019.8 hPa | 0 mm | - | 53 W/m² | - |
| 1778071831 | 5.56° C | 67% | 1019.8 hPa | 0 mm | - | 55 W/m² | - |
| 1778071529 | 5° C | 76% | 1019.6 hPa | 0 mm | - | 42 W/m² | - |
| 1778071226 | 4.44° C | 80% | 1019.4 hPa | 0 mm | - | 31 W/m² | - |
| 1778070924 | 4.44° C | 81% | 1019.3 hPa | 0 mm | - | 31 W/m² | - |
| 1778070622 | 3.89° C | 82% | 1019.4 hPa | 0 mm | - | 25 W/m² | - |
| 1778070017 | 3.89° C | 80% | 1019.3 hPa | 0 mm | - | 21 W/m² | - |
| 1778069714 | 3.33° C | 80% | 1019.2 hPa | 0 mm | - | 22 W/m² | - |
* Rain latest hour (hover to see other rain measurements)
** Current wind speed in m/s (hover to see current wind gust speed)